sensor_id;sensor_type;location;lat;lon;timestamp;temperature;humidity
12872;DHT22;6504;53.766;9.626;2022-10-28T00:01:03;15.00;99.90
12872;DHT22;6504;53.766;9.626;2022-10-28T00:03:36;15.00;99.90
12872;DHT22;6504;53.766;9.626;2022-10-28T00:06:07;15.00;99.90
12872;DHT22;6504;53.766;9.626;2022-10-28T00:08:35;15.00;99.90
12872;DHT22;6504;53.766;9.626;2022-10-28T00:11:05;15.00;99.90
12872;DHT22;6504;53.766;9.626;2022-10-28T00:13:34;15.00;99.90
12872;DHT22;6504;53.766;9.626;2022-10-28T00:16:04;15.00;99.90
12872;DHT22;6504;53.766;9.626;2022-10-28T00:18:34;15.00;99.90
12872;DHT22;6504;53.766;9.626;2022-10-28T00:21:05;15.00;99.90
12872;DHT22;6504;53.766;9.626;2022-10-28T00:23:34;15.00;99.90
12872;DHT22;6504;53.766;9.626;2022-10-28T00:26:06;15.00;99.90
12872;DHT22;6504;53.766;9.626;2022-10-28T00:28:34;15.00;99.90
12872;DHT22;6504;53.766;9.626;2022-10-28T00:31:04;15.00;99.90
12872;DHT22;6504;53.766;9.626;2022-10-28T00:33:34;15.00;99.90
12872;DHT22;6504;53.766;9.626;2022-10-28T00:36:13;15.00;99.90
12872;DHT22;6504;53.766;9.626;2022-10-28T00:38:43;15.00;99.90
12872;DHT22;6504;53.766;9.626;2022-10-28T00:41:13;15.00;99.90
12872;DHT22;6504;53.766;9.626;2022-10-28T00:43:43;15.00;99.90
12872;DHT22;6504;53.766;9.626;2022-10-28T00:46:17;14.90;99.90
12872;DHT22;6504;53.766;9.626;2022-10-28T00:48:51;15.00;99.90
12872;DHT22;6504;53.766;9.626;2022-10-28T00:51:21;14.90;99.90
12872;DHT22;6504;53.766;9.626;2022-10-28T00:53:51;14.90;99.90
12872;DHT22;6504;53.766;9.626;2022-10-28T00:56:21;14.90;99.90
12872;DHT22;6504;53.766;9.626;2022-10-28T00:58:49;14.90;99.90
12872;DHT22;6504;53.766;9.626;2022-10-28T01:01:18;14.90;99.90
12872;DHT22;6504;53.766;9.626;2022-10-28T01:03:48;14.90;99.90
12872;DHT22;6504;53.766;9.626;2022-10-28T01:06:16;14.90;99.90
12872;DHT22;6504;53.766;9.626;2022-10-28T01:08:44;14.90;99.90
12872;DHT22;6504;53.766;9.626;2022-10-28T01:11:43;14.80;99.90
12872;DHT22;6504;53.766;9.626;2022-10-28T01:14:19;14.80;99.90
12872;DHT22;6504;53.766;9.626;2022-10-28T01:16:59;14.80;99.90
12872;DHT22;6504;53.766;9.626;2022-10-28T01:20:02;14.80;99.90
12872;DHT22;6504;53.766;9.626;2022-10-28T01:22:37;14.70;99.90
12872;DHT22;6504;53.766;9.626;2022-10-28T01:25:36;14.80;99.90
12872;DHT22;6504;53.766;9.626;2022-10-28T01:28:32;14.80;99.90
12872;DHT22;6504;53.766;9.626;2022-10-28T01:31:14;14.70;99.90
12872;DHT22;6504;53.766;9.626;2022-10-28T01:33:50;14.70;99.90
12872;DHT22;6504;53.766;9.626;2022-10-28T01:36:26;14.70;99.90
12872;DHT22;6504;53.766;9.626;2022-10-28T01:39:08;14.70;99.90
12872;DHT22;6504;53.766;9.626;2022-10-28T01:41:47;14.60;99.90
12872;DHT22;6504;53.766;9.626;2022-10-28T01:44:23;14.60;99.90
12872;DHT22;6504;53.766;9.626;2022-10-28T01:47:00;14.60;99.90
12872;DHT22;6504;53.766;9.626;2022-10-28T01:49:31;14.60;99.90
12872;DHT22;6504;53.766;9.626;2022-10-28T01:52:10;14.60;99.90
12872;DHT22;6504;53.766;9.626;2022-10-28T01:54:40;14.60;99.90
12872;DHT22;6504;53.766;9.626;2022-10-28T01:57:11;14.60;99.90
12872;DHT22;6504;53.766;9.626;2022-10-28T01:59:40;14.60;99.90
12872;DHT22;6504;53.766;9.626;2022-10-28T02:02:10;14.70;99.90
12872;DHT22;6504;53.766;9.626;2022-10-28T02:04:37;14.70;99.90
12872;DHT22;6504;53.766;9.626;2022-10-28T02:07:06;14.60;99.90
12872;DHT22;6504;53.766;9.626;2022-10-28T02:09:50;14.60;99.90
12872;DHT22;6504;53.766;9.626;2022-10-28T02:12:24;14.60;99.90
12872;DHT22;6504;53.766;9.626;2022-10-28T02:15:13;14.60;99.90
12872;DHT22;6504;53.766;9.626;2022-10-28T02:17:55;14.70;99.90
12872;DHT22;6504;53.766;9.626;2022-10-28T02:20:33;14.60;99.90
12872;DHT22;6504;53.766;9.626;2022-10-28T02:23:10;14.70;99.90
12872;DHT22;6504;53.766;9.626;2022-10-28T02:25:44;14.60;99.90
12872;DHT22;6504;53.766;9.626;2022-10-28T02:28:16;14.60;99.90
12872;DHT22;6504;53.766;9.626;2022-10-28T02:30:51;14.60;99.90
12872;DHT22;6504;53.766;9.626;2022-10-28T02:33:25;14.60;99.90
12872;DHT22;6504;53.766;9.626;2022-10-28T02:35:59;14.60;99.90
12872;DHT22;6504;53.766;9.626;2022-10-28T02:38:32;14.60;99.90
12872;DHT22;6504;53.766;9.626;2022-10-28T02:41:03;14.60;99.90
12872;DHT22;6504;53.766;9.626;2022-10-28T02:43:33;14.60;99.90
12872;DHT22;6504;53.766;9.626;2022-10-28T02:46:04;14.60;99.90
12872;DHT22;6504;53.766;9.626;2022-10-28T02:48:36;14.60;99.90
12872;DHT22;6504;53.766;9.626;2022-10-28T02:51:09;14.60;99.90
12872;DHT22;6504;53.766;9.626;2022-10-28T02:53:44;14.50;99.90
12872;DHT22;6504;53.766;9.626;2022-10-28T02:56:18;14.50;99.90
12872;DHT22;6504;53.766;9.626;2022-10-28T02:58:48;14.50;99.90
12872;DHT22;6504;53.766;9.626;2022-10-28T03:01:16;14.50;99.90
12872;DHT22;6504;53.766;9.626;2022-10-28T03:03:45;14.50;99.90
12872;DHT22;6504;53.766;9.626;2022-10-28T03:06:13;14.50;99.90
12872;DHT22;6504;53.766;9.626;2022-10-28T03:08:41;14.50;99.90
12872;DHT22;6504;53.766;9.626;2022-10-28T03:11:09;14.50;99.90
12872;DHT22;6504;53.766;9.626;2022-10-28T03:13:37;14.50;99.90
12872;DHT22;6504;53.766;9.626;2022-10-28T03:16:05;14.50;99.90
12872;DHT22;6504;53.766;9.626;2022-10-28T03:18:33;14.50;99.90
12872;DHT22;6504;53.766;9.626;2022-10-28T03:21:03;14.50;99.90
12872;DHT22;6504;53.766;9.626;2022-10-28T03:23:31;14.50;99.90
12872;DHT22;6504;53.766;9.626;2022-10-28T03:25:59;14.40;99.90
12872;DHT22;6504;53.766;9.626;2022-10-28T03:28:27;14.40;99.90
12872;DHT22;6504;53.766;9.626;2022-10-28T03:30:55;14.40;99.90
12872;DHT22;6504;53.766;9.626;2022-10-28T03:33:23;14.40;99.90
12872;DHT22;6504;53.766;9.626;2022-10-28T03:35:51;14.40;99.90
12872;DHT22;6504;53.766;9.626;2022-10-28T03:38:20;14.40;99.90
12872;DHT22;6504;53.766;9.626;2022-10-28T03:40:48;14.40;99.90
12872;DHT22;6504;53.766;9.626;2022-10-28T03:43:17;14.40;99.90
12872;DHT22;6504;53.766;9.626;2022-10-28T03:45:46;14.40;99.90
12872;DHT22;6504;53.766;9.626;2022-10-28T03:48:14;14.40;99.90
12872;DHT22;6504;53.766;9.626;2022-10-28T03:50:42;14.40;99.90
12872;DHT22;6504;53.766;9.626;2022-10-28T03:53:10;14.40;99.90
12872;DHT22;6504;53.766;9.626;2022-10-28T03:55:40;14.40;99.90
12872;DHT22;6504;53.766;9.626;2022-10-28T03:58:08;14.40;99.90
12872;DHT22;6504;53.766;9.626;2022-10-28T04:00:36;14.50;99.90
12872;DHT22;6504;53.766;9.626;2022-10-28T04:03:04;14.50;99.90
12872;DHT22;6504;53.766;9.626;2022-10-28T04:05:32;14.50;99.90
12872;DHT22;6504;53.766;9.626;2022-10-28T04:08:00;14.50;99.90
12872;DHT22;6504;53.766;9.626;2022-10-28T04:10:28;14.50;99.90
12872;DHT22;6504;53.766;9.626;2022-10-28T04:13:00;14.50;99.90
12872;DHT22;6504;53.766;9.626;2022-10-28T04:15:28;14.50;99.90
12872;DHT22;6504;53.766;9.626;2022-10-28T04:17:56;14.50;99.90
12872;DHT22;6504;53.766;9.626;2022-10-28T04:20:25;14.50;99.90
12872;DHT22;6504;53.766;9.626;2022-10-28T04:22:53;14.50;99.90
12872;DHT22;6504;53.766;9.626;2022-10-28T04:25:23;14.50;99.90
12872;DHT22;6504;53.766;9.626;2022-10-28T04:27:52;14.50;99.90
12872;DHT22;6504;53.766;9.626;2022-10-28T04:30:22;14.50;99.90
12872;DHT22;6504;53.766;9.626;2022-10-28T04:32:51;14.50;99.90
12872;DHT22;6504;53.766;9.626;2022-10-28T04:35:19;14.50;99.90
12872;DHT22;6504;53.766;9.626;2022-10-28T04:37:47;14.60;99.90
12872;DHT22;6504;53.766;9.626;2022-10-28T04:40:15;14.50;99.90
12872;DHT22;6504;53.766;9.626;2022-10-28T04:42:43;14.50;99.90
12872;DHT22;6504;53.766;9.626;2022-10-28T04:45:12;14.50;99.90
12872;DHT22;6504;53.766;9.626;2022-10-28T04:47:42;14.50;99.90
12872;DHT22;6504;53.766;9.626;2022-10-28T04:50:10;14.50;99.90
12872;DHT22;6504;53.766;9.626;2022-10-28T04:52:38;14.50;99.90
12872;DHT22;6504;53.766;9.626;2022-10-28T04:55:07;14.60;99.90
12872;DHT22;6504;53.766;9.626;2022-10-28T04:57:35;14.50;99.90
12872;DHT22;6504;53.766;9.626;2022-10-28T05:00:04;14.50;99.90
12872;DHT22;6504;53.766;9.626;2022-10-28T05:02:32;14.50;99.90
12872;DHT22;6504;53.766;9.626;2022-10-28T05:05:02;14.50;99.90
12872;DHT22;6504;53.766;9.626;2022-10-28T05:07:30;14.50;99.90
12872;DHT22;6504;53.766;9.626;2022-10-28T05:09:58;14.50;99.90
12872;DHT22;6504;53.766;9.626;2022-10-28T05:12:26;14.50;99.90
12872;DHT22;6504;53.766;9.626;2022-10-28T05:14:54;14.40;99.90
12872;DHT22;6504;53.766;9.626;2022-10-28T05:17:22;14.40;99.90
12872;DHT22;6504;53.766;9.626;2022-10-28T05:19:50;14.40;99.90
12872;DHT22;6504;53.766;9.626;2022-10-28T05:22:20;14.30;99.90
12872;DHT22;6504;53.766;9.626;2022-10-28T05:24:48;14.30;99.90
12872;DHT22;6504;53.766;9.626;2022-10-28T05:27:16;14.30;99.90
12872;DHT22;6504;53.766;9.626;2022-10-28T05:29:44;14.20;99.90
12872;DHT22;6504;53.766;9.626;2022-10-28T05:32:12;14.20;99.90
12872;DHT22;6504;53.766;9.626;2022-10-28T05:34:40;14.20;99.90
12872;DHT22;6504;53.766;9.626;2022-10-28T05:37:08;14.20;99.90
12872;DHT22;6504;53.766;9.626;2022-10-28T05:39:37;14.20;99.90
12872;DHT22;6504;53.766;9.626;2022-10-28T05:42:06;14.20;99.90
12872;DHT22;6504;53.766;9.626;2022-10-28T05:44:34;14.20;99.90
12872;DHT22;6504;53.766;9.626;2022-10-28T05:47:02;14.20;99.90
12872;DHT22;6504;53.766;9.626;2022-10-28T05:49:30;14.20;99.90
12872;DHT22;6504;53.766;9.626;2022-10-28T05:51:58;14.20;99.90
12872;DHT22;6504;53.766;9.626;2022-10-28T05:54:26;14.20;99.90
12872;DHT22;6504;53.766;9.626;2022-10-28T05:56:55;14.10;99.90
12872;DHT22;6504;53.766;9.626;2022-10-28T05:59:23;14.10;99.90
12872;DHT22;6504;53.766;9.626;2022-10-28T06:01:51;14.10;99.90
12872;DHT22;6504;53.766;9.626;2022-10-28T06:04:20;14.10;99.90
12872;DHT22;6504;53.766;9.626;2022-10-28T06:06:48;14.10;99.90
12872;DHT22;6504;53.766;9.626;2022-10-28T06:09:16;14.10;99.90
12872;DHT22;6504;53.766;9.626;2022-10-28T06:11:44;14.10;99.90
12872;DHT22;6504;53.766;9.626;2022-10-28T06:14:14;14.10;99.90
12872;DHT22;6504;53.766;9.626;2022-10-28T06:16:41;14.00;99.90
12872;DHT22;6504;53.766;9.626;2022-10-28T06:19:10;14.00;99.90
12872;DHT22;6504;53.766;9.626;2022-10-28T06:21:38;14.00;99.90
12872;DHT22;6504;53.766;9.626;2022-10-28T06:24:07;14.00;99.90
12872;DHT22;6504;53.766;9.626;2022-10-28T06:26:40;14.00;99.90
12872;DHT22;6504;53.766;9.626;2022-10-28T06:29:12;13.90;99.90
12872;DHT22;6504;53.766;9.626;2022-10-28T06:31:42;13.90;99.90
12872;DHT22;6504;53.766;9.626;2022-10-28T06:34:10;13.90;99.90
12872;DHT22;6504;53.766;9.626;2022-10-28T06:36:38;13.90;99.90
12872;DHT22;6504;53.766;9.626;2022-10-28T06:39:06;13.80;99.90
12872;DHT22;6504;53.766;9.626;2022-10-28T06:41:34;13.80;99.90
12872;DHT22;6504;53.766;9.626;2022-10-28T06:44:03;13.80;99.90
12872;DHT22;6504;53.766;9.626;2022-10-28T06:46:31;13.80;99.90
12872;DHT22;6504;53.766;9.626;2022-10-28T06:49:00;13.80;99.90
12872;DHT22;6504;53.766;9.626;2022-10-28T06:51:30;13.80;99.90
12872;DHT22;6504;53.766;9.626;2022-10-28T06:53:58;13.80;99.90
12872;DHT22;6504;53.766;9.626;2022-10-28T06:56:26;13.80;99.90
12872;DHT22;6504;53.766;9.626;2022-10-28T06:58:54;13.80;99.90
12872;DHT22;6504;53.766;9.626;2022-10-28T07:01:22;13.80;99.90
12872;DHT22;6504;53.766;9.626;2022-10-28T07:03:52;13.70;99.90
12872;DHT22;6504;53.766;9.626;2022-10-28T07:06:21;13.70;99.90
12872;DHT22;6504;53.766;9.626;2022-10-28T07:08:50;13.80;99.90
12872;DHT22;6504;53.766;9.626;2022-10-28T07:11:19;13.70;99.90
12872;DHT22;6504;53.766;9.626;2022-10-28T07:13:47;13.70;99.90
12872;DHT22;6504;53.766;9.626;2022-10-28T07:16:15;13.70;99.90
12872;DHT22;6504;53.766;9.626;2022-10-28T07:18:43;13.80;99.90
12872;DHT22;6504;53.766;9.626;2022-10-28T07:21:11;13.80;99.90
12872;DHT22;6504;53.766;9.626;2022-10-28T07:23:42;13.80;99.90
12872;DHT22;6504;53.766;9.626;2022-10-28T07:26:10;13.80;99.90
12872;DHT22;6504;53.766;9.626;2022-10-28T07:28:38;13.80;99.90
12872;DHT22;6504;53.766;9.626;2022-10-28T07:31:08;13.80;99.90
12872;DHT22;6504;53.766;9.626;2022-10-28T07:33:41;13.80;99.90
12872;DHT22;6504;53.766;9.626;2022-10-28T07:36:10;13.90;99.90
12872;DHT22;6504;53.766;9.626;2022-10-28T07:38:38;13.90;99.90
12872;DHT22;6504;53.766;9.626;2022-10-28T07:41:09;13.90;99.90
12872;DHT22;6504;53.766;9.626;2022-10-28T07:43:38;13.90;99.90
12872;DHT22;6504;53.766;9.626;2022-10-28T07:46:06;14.00;99.90
12872;DHT22;6504;53.766;9.626;2022-10-28T07:48:35;14.00;99.90
12872;DHT22;6504;53.766;9.626;2022-10-28T07:51:06;14.00;99.90
12872;DHT22;6504;53.766;9.626;2022-10-28T07:53:34;14.10;99.90
12872;DHT22;6504;53.766;9.626;2022-10-28T07:56:05;14.10;99.90
12872;DHT22;6504;53.766;9.626;2022-10-28T07:58:37;14.10;99.90
12872;DHT22;6504;53.766;9.626;2022-10-28T08:01:07;14.20;99.90
12872;DHT22;6504;53.766;9.626;2022-10-28T08:03:36;14.20;99.90
12872;DHT22;6504;53.766;9.626;2022-10-28T08:06:07;14.20;99.90
12872;DHT22;6504;53.766;9.626;2022-10-28T08:08:35;14.30;99.90
12872;DHT22;6504;53.766;9.626;2022-10-28T08:11:10;14.30;99.90
12872;DHT22;6504;53.766;9.626;2022-10-28T08:13:40;14.40;99.90
12872;DHT22;6504;53.766;9.626;2022-10-28T08:16:08;14.40;99.90
12872;DHT22;6504;53.766;9.626;2022-10-28T08:18:37;14.50;99.90
12872;DHT22;6504;53.766;9.626;2022-10-28T08:21:07;14.50;99.90
12872;DHT22;6504;53.766;9.626;2022-10-28T08:23:36;14.50;99.90
12872;DHT22;6504;53.766;9.626;2022-10-28T08:26:05;14.60;99.90
12872;DHT22;6504;53.766;9.626;2022-10-28T08:28:33;14.60;99.90
12872;DHT22;6504;53.766;9.626;2022-10-28T08:31:03;14.70;99.90
12872;DHT22;6504;53.766;9.626;2022-10-28T08:33:36;14.70;99.90
12872;DHT22;6504;53.766;9.626;2022-10-28T08:36:05;14.80;99.90
12872;DHT22;6504;53.766;9.626;2022-10-28T08:38:33;14.80;99.90
12872;DHT22;6504;53.766;9.626;2022-10-28T08:41:11;14.90;99.90
12872;DHT22;6504;53.766;9.626;2022-10-28T08:43:52;14.90;99.90
12872;DHT22;6504;53.766;9.626;2022-10-28T08:46:38;15.00;99.90
12872;DHT22;6504;53.766;9.626;2022-10-28T08:49:11;15.00;99.90
12872;DHT22;6504;53.766;9.626;2022-10-28T08:51:47;15.10;99.90
12872;DHT22;6504;53.766;9.626;2022-10-28T08:54:22;15.10;99.90
12872;DHT22;6504;53.766;9.626;2022-10-28T08:56:54;15.20;99.90
12872;DHT22;6504;53.766;9.626;2022-10-28T08:59:28;15.20;99.90
12872;DHT22;6504;53.766;9.626;2022-10-28T09:02:00;15.20;99.90
12872;DHT22;6504;53.766;9.626;2022-10-28T09:04:36;15.30;99.90
12872;DHT22;6504;53.766;9.626;2022-10-28T09:07:08;15.30;99.90
12872;DHT22;6504;53.766;9.626;2022-10-28T09:09:39;15.40;99.90
12872;DHT22;6504;53.766;9.626;2022-10-28T09:12:18;15.40;99.90
12872;DHT22;6504;53.766;9.626;2022-10-28T09:15:02;15.40;99.90
12872;DHT22;6504;53.766;9.626;2022-10-28T09:17:41;15.50;99.90
12872;DHT22;6504;53.766;9.626;2022-10-28T09:20:17;15.50;99.90
12872;DHT22;6504;53.766;9.626;2022-10-28T09:22:54;15.60;99.90
12872;DHT22;6504;53.766;9.626;2022-10-28T09:25:30;15.60;99.90
12872;DHT22;6504;53.766;9.626;2022-10-28T09:28:11;15.70;99.90
12872;DHT22;6504;53.766;9.626;2022-10-28T09:30:50;15.70;99.90
12872;DHT22;6504;53.766;9.626;2022-10-28T09:33:40;15.80;99.90
12872;DHT22;6504;53.766;9.626;2022-10-28T09:36:13;15.80;99.90
12872;DHT22;6504;53.766;9.626;2022-10-28T09:38:43;15.90;99.90
12872;DHT22;6504;53.766;9.626;2022-10-28T09:41:15;16.00;99.90
12872;DHT22;6504;53.766;9.626;2022-10-28T09:43:47;16.00;99.90
12872;DHT22;6504;53.766;9.626;2022-10-28T09:46:18;16.10;99.90
12872;DHT22;6504;53.766;9.626;2022-10-28T09:48:49;16.10;99.90
12872;DHT22;6504;53.766;9.626;2022-10-28T09:51:27;16.20;99.90
12872;DHT22;6504;53.766;9.626;2022-10-28T09:53:57;16.20;99.90
12872;DHT22;6504;53.766;9.626;2022-10-28T09:56:27;16.30;99.90
12872;DHT22;6504;53.766;9.626;2022-10-28T09:58:58;16.30;99.90
12872;DHT22;6504;53.766;9.626;2022-10-28T10:01:31;16.30;99.90
12872;DHT22;6504;53.766;9.626;2022-10-28T10:04:04;16.40;99.90
12872;DHT22;6504;53.766;9.626;2022-10-28T10:06:40;16.50;99.90
12872;DHT22;6504;53.766;9.626;2022-10-28T10:09:15;16.60;99.90
12872;DHT22;6504;53.766;9.626;2022-10-28T10:11:46;16.60;99.90
12872;DHT22;6504;53.766;9.626;2022-10-28T10:14:18;16.70;99.90
12872;DHT22;6504;53.766;9.626;2022-10-28T10:16:54;16.70;99.90
12872;DHT22;6504;53.766;9.626;2022-10-28T10:19:24;16.80;99.90
12872;DHT22;6504;53.766;9.626;2022-10-28T10:21:53;16.90;99.90
12872;DHT22;6504;53.766;9.626;2022-10-28T10:24:29;17.00;99.90
12872;DHT22;6504;53.766;9.626;2022-10-28T10:27:00;17.00;99.90
12872;DHT22;6504;53.766;9.626;2022-10-28T10:29:29;17.10;99.90
12872;DHT22;6504;53.766;9.626;2022-10-28T10:32:14;17.10;99.90
12872;DHT22;6504;53.766;9.626;2022-10-28T10:34:48;17.20;99.90
12872;DHT22;6504;53.766;9.626;2022-10-28T10:37:20;17.30;99.90
12872;DHT22;6504;53.766;9.626;2022-10-28T10:40:00;17.40;99.90
12872;DHT22;6504;53.766;9.626;2022-10-28T10:42:28;17.50;99.90
12872;DHT22;6504;53.766;9.626;2022-10-28T10:45:01;17.50;99.90
12872;DHT22;6504;53.766;9.626;2022-10-28T10:47:29;17.60;99.90
12872;DHT22;6504;53.766;9.626;2022-10-28T10:50:21;17.70;99.90
12872;DHT22;6504;53.766;9.626;2022-10-28T10:52:51;17.70;99.90
12872;DHT22;6504;53.766;9.626;2022-10-28T10:55:26;17.80;99.90
12872;DHT22;6504;53.766;9.626;2022-10-28T10:57:58;17.90;99.90
12872;DHT22;6504;53.766;9.626;2022-10-28T11:00:31;18.00;99.90
12872;DHT22;6504;53.766;9.626;2022-10-28T11:03:00;18.00;99.90
12872;DHT22;6504;53.766;9.626;2022-10-28T11:05:30;18.10;99.90
12872;DHT22;6504;53.766;9.626;2022-10-28T11:08:04;18.20;99.90
12872;DHT22;6504;53.766;9.626;2022-10-28T11:10:33;18.30;99.90
12872;DHT22;6504;53.766;9.626;2022-10-28T11:13:04;18.40;99.90
12872;DHT22;6504;53.766;9.626;2022-10-28T11:15:32;18.40;99.90
12872;DHT22;6504;53.766;9.626;2022-10-28T11:18:02;18.50;99.90
12872;DHT22;6504;53.766;9.626;2022-10-28T11:20:40;18.60;99.90
12872;DHT22;6504;53.766;9.626;2022-10-28T11:23:33;18.70;99.90
12872;DHT22;6504;53.766;9.626;2022-10-28T11:26:04;18.80;99.90
12872;DHT22;6504;53.766;9.626;2022-10-28T11:28:46;18.90;99.90
12872;DHT22;6504;53.766;9.626;2022-10-28T11:31:28;19.00;99.90
12872;DHT22;6504;53.766;9.626;2022-10-28T11:34:12;19.10;99.90
12872;DHT22;6504;53.766;9.626;2022-10-28T11:36:51;19.10;99.90
12872;DHT22;6504;53.766;9.626;2022-10-28T11:39:25;19.20;99.90
12872;DHT22;6504;53.766;9.626;2022-10-28T11:42:07;19.20;99.90
12872;DHT22;6504;53.766;9.626;2022-10-28T11:44:50;19.30;99.90
12872;DHT22;6504;53.766;9.626;2022-10-28T11:47:46;19.30;99.90
12872;DHT22;6504;53.766;9.626;2022-10-28T11:50:23;19.40;99.90
12872;DHT22;6504;53.766;9.626;2022-10-28T11:53:26;19.40;99.90
12872;DHT22;6504;53.766;9.626;2022-10-28T11:56:02;19.30;99.90
12872;DHT22;6504;53.766;9.626;2022-10-28T11:58:41;19.40;99.90
12872;DHT22;6504;53.766;9.626;2022-10-28T12:01:27;19.40;99.90
12872;DHT22;6504;53.766;9.626;2022-10-28T12:04:22;19.40;99.90
12872;DHT22;6504;53.766;9.626;2022-10-28T12:07:10;19.50;99.90
12872;DHT22;6504;53.766;9.626;2022-10-28T12:09:55;19.60;99.90
12872;DHT22;6504;53.766;9.626;2022-10-28T12:12:32;19.70;99.90
12872;DHT22;6504;53.766;9.626;2022-10-28T12:15:13;19.70;99.90
12872;DHT22;6504;53.766;9.626;2022-10-28T12:17:46;19.80;99.90
12872;DHT22;6504;53.766;9.626;2022-10-28T12:20:19;19.90;99.90
12872;DHT22;6504;53.766;9.626;2022-10-28T12:22:51;19.90;99.90
12872;DHT22;6504;53.766;9.626;2022-10-28T12:25:25;20.00;99.90
12872;DHT22;6504;53.766;9.626;2022-10-28T12:27:57;20.00;99.90
12872;DHT22;6504;53.766;9.626;2022-10-28T12:30:30;20.10;99.90
12872;DHT22;6504;53.766;9.626;2022-10-28T12:33:02;20.10;99.90
12872;DHT22;6504;53.766;9.626;2022-10-28T12:35:35;20.10;99.90
12872;DHT22;6504;53.766;9.626;2022-10-28T12:38:09;20.10;99.90
12872;DHT22;6504;53.766;9.626;2022-10-28T12:40:42;20.20;99.90
12872;DHT22;6504;53.766;9.626;2022-10-28T12:43:17;20.10;99.90
12872;DHT22;6504;53.766;9.626;2022-10-28T12:45:52;20.20;99.90
12872;DHT22;6504;53.766;9.626;2022-10-28T12:48:27;20.20;99.90
12872;DHT22;6504;53.766;9.626;2022-10-28T12:51:04;20.20;99.90
12872;DHT22;6504;53.766;9.626;2022-10-28T12:53:40;20.20;99.90
12872;DHT22;6504;53.766;9.626;2022-10-28T12:56:15;20.20;99.90
12872;DHT22;6504;53.766;9.626;2022-10-28T12:58:51;20.20;99.90
12872;DHT22;6504;53.766;9.626;2022-10-28T13:01:23;20.20;99.90
12872;DHT22;6504;53.766;9.626;2022-10-28T13:03:52;20.10;99.90
12872;DHT22;6504;53.766;9.626;2022-10-28T13:09:37;20.20;99.90
12872;DHT22;6504;53.766;9.626;2022-10-28T13:12:45;20.20;99.90
12872;DHT22;6504;53.766;9.626;2022-10-28T13:15:27;20.10;99.90
12872;DHT22;6504;53.766;9.626;2022-10-28T13:18:14;20.10;99.90
12872;DHT22;6504;53.766;9.626;2022-10-28T13:20:53;20.10;99.90
12872;DHT22;6504;53.766;9.626;2022-10-28T13:23:29;20.20;99.90
12872;DHT22;6504;53.766;9.626;2022-10-28T13:26:09;20.20;99.90
12872;DHT22;6504;53.766;9.626;2022-10-28T13:28:45;20.20;99.90
12872;DHT22;6504;53.766;9.626;2022-10-28T13:31:14;20.10;99.90
12872;DHT22;6504;53.766;9.626;2022-10-28T13:33:49;20.10;99.90
12872;DHT22;6504;53.766;9.626;2022-10-28T13:36:23;20.10;99.90
12872;DHT22;6504;53.766;9.626;2022-10-28T13:38:53;20.10;99.90
12872;DHT22;6504;53.766;9.626;2022-10-28T13:41:40;20.10;99.90
12872;DHT22;6504;53.766;9.626;2022-10-28T13:44:24;20.10;99.90
12872;DHT22;6504;53.766;9.626;2022-10-28T13:50:07;20.10;99.90
12872;DHT22;6504;53.766;9.626;2022-10-28T13:52:36;20.10;99.90
12872;DHT22;6504;53.766;9.626;2022-10-28T13:55:20;20.10;99.90
12872;DHT22;6504;53.766;9.626;2022-10-28T13:57:50;20.10;99.90
12872;DHT22;6504;53.766;9.626;2022-10-28T14:00:36;20.00;99.90
12872;DHT22;6504;53.766;9.626;2022-10-28T14:03:05;20.00;99.90
12872;DHT22;6504;53.766;9.626;2022-10-28T14:05:54;20.00;99.90
12872;DHT22;6504;53.766;9.626;2022-10-28T14:08:26;20.00;99.90
12872;DHT22;6504;53.766;9.626;2022-10-28T14:11:00;19.90;99.90
12872;DHT22;6504;53.766;9.626;2022-10-28T14:13:31;19.90;99.90
12872;DHT22;6504;53.766;9.626;2022-10-28T14:16:20;19.90;99.90
12872;DHT22;6504;53.766;9.626;2022-10-28T14:18:58;19.90;99.90
12872;DHT22;6504;53.766;9.626;2022-10-28T14:21:43;19.90;99.90
12872;DHT22;6504;53.766;9.626;2022-10-28T14:24:13;19.90;99.90
12872;DHT22;6504;53.766;9.626;2022-10-28T14:27:27;19.80;99.90
12872;DHT22;6504;53.766;9.626;2022-10-28T14:30:26;19.80;99.90
12872;DHT22;6504;53.766;9.626;2022-10-28T14:33:20;19.80;99.90
12872;DHT22;6504;53.766;9.626;2022-10-28T14:36:06;19.80;99.90
12872;DHT22;6504;53.766;9.626;2022-10-28T14:38:52;19.80;99.90
12872;DHT22;6504;53.766;9.626;2022-10-28T14:41:44;19.70;99.90
12872;DHT22;6504;53.766;9.626;2022-10-28T14:44:31;19.70;99.90
12872;DHT22;6504;53.766;9.626;2022-10-28T14:47:16;19.70;99.90
12872;DHT22;6504;53.766;9.626;2022-10-28T14:49:56;19.70;99.90
12872;DHT22;6504;53.766;9.626;2022-10-28T14:52:28;19.60;99.90
12872;DHT22;6504;53.766;9.626;2022-10-28T14:54:58;19.60;99.90
12872;DHT22;6504;53.766;9.626;2022-10-28T14:57:29;19.60;99.90
12872;DHT22;6504;53.766;9.626;2022-10-28T15:00:02;19.60;99.90
12872;DHT22;6504;53.766;9.626;2022-10-28T15:02:32;19.50;99.90
12872;DHT22;6504;53.766;9.626;2022-10-28T15:05:12;19.50;99.90
12872;DHT22;6504;53.766;9.626;2022-10-28T15:07:41;19.50;99.90
12872;DHT22;6504;53.766;9.626;2022-10-28T15:10:14;19.50;99.90
12872;DHT22;6504;53.766;9.626;2022-10-28T15:12:43;19.40;99.90
12872;DHT22;6504;53.766;9.626;2022-10-28T15:15:16;19.40;99.90
12872;DHT22;6504;53.766;9.626;2022-10-28T15:17:44;19.40;99.90
12872;DHT22;6504;53.766;9.626;2022-10-28T15:20:20;19.30;99.90
12872;DHT22;6504;53.766;9.626;2022-10-28T15:22:49;19.30;99.90
12872;DHT22;6504;53.766;9.626;2022-10-28T15:25:20;19.30;99.90
12872;DHT22;6504;53.766;9.626;2022-10-28T15:27:50;19.20;99.90
12872;DHT22;6504;53.766;9.626;2022-10-28T15:30:21;19.20;99.90
12872;DHT22;6504;53.766;9.626;2022-10-28T15:32:50;19.20;99.90
12872;DHT22;6504;53.766;9.626;2022-10-28T15:35:37;19.10;99.90
12872;DHT22;6504;53.766;9.626;2022-10-28T15:38:35;19.00;99.90
12872;DHT22;6504;53.766;9.626;2022-10-28T15:44:24;18.90;99.90
12872;DHT22;6504;53.766;9.626;2022-10-28T15:46:53;18.80;99.90
12872;DHT22;6504;53.766;9.626;2022-10-28T15:49:37;18.80;99.90
12872;DHT22;6504;53.766;9.626;2022-10-28T15:52:37;18.80;99.90
12872;DHT22;6504;53.766;9.626;2022-10-28T15:55:28;18.70;99.90
12872;DHT22;6504;53.766;9.626;2022-10-28T15:58:33;18.70;99.90
12872;DHT22;6504;53.766;9.626;2022-10-28T16:01:02;18.70;99.90
12872;DHT22;6504;53.766;9.626;2022-10-28T16:03:41;18.60;99.90
12872;DHT22;6504;53.766;9.626;2022-10-28T16:06:23;18.50;99.90
12872;DHT22;6504;53.766;9.626;2022-10-28T16:09:02;18.50;99.90
12872;DHT22;6504;53.766;9.626;2022-10-28T16:11:33;18.50;99.90
12872;DHT22;6504;53.766;9.626;2022-10-28T16:14:26;18.40;99.90
12872;DHT22;6504;53.766;9.626;2022-10-28T16:17:06;18.40;99.90
12872;DHT22;6504;53.766;9.626;2022-10-28T16:19:42;18.40;99.90
12872;DHT22;6504;53.766;9.626;2022-10-28T16:22:12;18.30;99.90
12872;DHT22;6504;53.766;9.626;2022-10-28T16:24:41;18.30;99.90
12872;DHT22;6504;53.766;9.626;2022-10-28T16:27:17;18.20;99.90
12872;DHT22;6504;53.766;9.626;2022-10-28T16:29:45;18.20;99.90
12872;DHT22;6504;53.766;9.626;2022-10-28T16:32:15;18.20;99.90
12872;DHT22;6504;53.766;9.626;2022-10-28T16:34:43;18.10;99.90